sensor_id;sensor_type;location;lat;lon;timestamp;P1;durP1;ratioP1;P2;durP2;ratioP2
14125;SDS011;7141;49.484;11.242;2022-12-07T00:01:18;8.43;;;6.77;;
14125;SDS011;7141;49.484;11.242;2022-12-07T00:03:44;9.30;;;6.27;;
14125;SDS011;7141;49.484;11.242;2022-12-07T00:06:11;8.37;;;6.20;;
14125;SDS011;7141;49.484;11.242;2022-12-07T00:08:38;9.67;;;5.93;;
14125;SDS011;7141;49.484;11.242;2022-12-07T00:11:08;8.07;;;6.33;;
14125;SDS011;7141;49.484;11.242;2022-12-07T00:13:34;7.80;;;6.20;;
14125;SDS011;7141;49.484;11.242;2022-12-07T00:16:08;8.60;;;6.10;;
14125;SDS011;7141;49.484;11.242;2022-12-07T00:18:34;9.53;;;6.73;;
14125;SDS011;7141;49.484;11.242;2022-12-07T00:21:01;9.90;;;6.93;;
14125;SDS011;7141;49.484;11.242;2022-12-07T00:23:27;9.30;;;6.03;;
14125;SDS011;7141;49.484;11.242;2022-12-07T00:25:53;8.63;;;6.40;;
14125;SDS011;7141;49.484;11.242;2022-12-07T00:28:19;11.17;;;6.87;;
14125;SDS011;7141;49.484;11.242;2022-12-07T00:30:45;10.93;;;7.13;;
14125;SDS011;7141;49.484;11.242;2022-12-07T00:33:11;8.93;;;6.93;;
14125;SDS011;7141;49.484;11.242;2022-12-07T00:35:37;9.57;;;6.80;;
14125;SDS011;7141;49.484;11.242;2022-12-07T00:38:03;10.20;;;7.73;;
14125;SDS011;7141;49.484;11.242;2022-12-07T00:40:29;8.10;;;6.63;;
14125;SDS011;7141;49.484;11.242;2022-12-07T00:42:55;10.30;;;7.47;;
14125;SDS011;7141;49.484;11.242;2022-12-07T00:45:21;12.10;;;7.40;;
14125;SDS011;7141;49.484;11.242;2022-12-07T00:47:47;9.50;;;7.33;;
14125;SDS011;7141;49.484;11.242;2022-12-07T00:50:13;9.67;;;7.67;;
14125;SDS011;7141;49.484;11.242;2022-12-07T00:52:39;10.40;;;7.93;;
14125;SDS011;7141;49.484;11.242;2022-12-07T00:55:05;9.47;;;6.90;;
14125;SDS011;7141;49.484;11.242;2022-12-07T00:57:31;9.47;;;7.13;;
14125;SDS011;7141;49.484;11.242;2022-12-07T00:59:57;10.57;;;7.20;;
14125;SDS011;7141;49.484;11.242;2022-12-07T01:02:23;9.13;;;6.77;;
14125;SDS011;7141;49.484;11.242;2022-12-07T01:04:49;8.43;;;7.20;;
14125;SDS011;7141;49.484;11.242;2022-12-07T01:07:15;8.63;;;7.30;;
14125;SDS011;7141;49.484;11.242;2022-12-07T01:09:41;9.53;;;7.53;;
14125;SDS011;7141;49.484;11.242;2022-12-07T01:12:07;10.20;;;7.63;;
14125;SDS011;7141;49.484;11.242;2022-12-07T01:14:33;10.60;;;7.37;;
14125;SDS011;7141;49.484;11.242;2022-12-07T01:16:59;9.63;;;7.20;;
14125;SDS011;7141;49.484;11.242;2022-12-07T01:19:25;10.17;;;7.57;;
14125;SDS011;7141;49.484;11.242;2022-12-07T01:21:51;10.20;;;7.40;;
14125;SDS011;7141;49.484;11.242;2022-12-07T01:24:17;11.47;;;7.23;;
14125;SDS011;7141;49.484;11.242;2022-12-07T01:26:43;9.80;;;7.30;;
14125;SDS011;7141;49.484;11.242;2022-12-07T01:29:09;10.13;;;7.30;;
14125;SDS011;7141;49.484;11.242;2022-12-07T01:31:35;9.93;;;7.70;;
14125;SDS011;7141;49.484;11.242;2022-12-07T01:34:01;10.60;;;7.93;;
14125;SDS011;7141;49.484;11.242;2022-12-07T01:39:04;13.63;;;9.00;;
14125;SDS011;7141;49.484;11.242;2022-12-07T01:41:31;10.60;;;7.43;;
14125;SDS011;7141;49.484;11.242;2022-12-07T01:44:11;14.00;;;7.00;;
14125;SDS011;7141;49.484;11.242;2022-12-07T01:46:38;10.60;;;8.07;;
14125;SDS011;7141;49.484;11.242;2022-12-07T01:49:05;11.77;;;8.40;;
14125;SDS011;7141;49.484;11.242;2022-12-07T01:51:31;14.70;;;8.23;;
14125;SDS011;7141;49.484;11.242;2022-12-07T01:53:57;13.50;;;7.60;;
14125;SDS011;7141;49.484;11.242;2022-12-07T01:56:24;12.50;;;8.03;;
14125;SDS011;7141;49.484;11.242;2022-12-07T01:58:52;10.13;;;7.63;;
14125;SDS011;7141;49.484;11.242;2022-12-07T02:01:19;10.40;;;7.90;;
14125;SDS011;7141;49.484;11.242;2022-12-07T02:03:46;11.77;;;8.07;;
14125;SDS011;7141;49.484;11.242;2022-12-07T02:06:13;13.67;;;8.40;;
14125;SDS011;7141;49.484;11.242;2022-12-07T02:08:41;13.03;;;8.53;;
14125;SDS011;7141;49.484;11.242;2022-12-07T02:11:07;11.30;;;8.57;;
14125;SDS011;7141;49.484;11.242;2022-12-07T02:13:34;12.53;;;8.23;;
14125;SDS011;7141;49.484;11.242;2022-12-07T02:16:04;11.23;;;8.23;;
14125;SDS011;7141;49.484;11.242;2022-12-07T02:21:23;12.57;;;9.37;;
14125;SDS011;7141;49.484;11.242;2022-12-07T02:31:17;13.27;;;9.03;;
14125;SDS011;7141;49.484;11.242;2022-12-07T02:33:46;13.37;;;9.27;;
14125;SDS011;7141;49.484;11.242;2022-12-07T02:38:51;11.70;;;8.60;;
14125;SDS011;7141;49.484;11.242;2022-12-07T02:41:26;11.63;;;8.63;;
14125;SDS011;7141;49.484;11.242;2022-12-07T02:43:54;12.30;;;8.17;;
14125;SDS011;7141;49.484;11.242;2022-12-07T02:46:22;11.50;;;8.43;;
14125;SDS011;7141;49.484;11.242;2022-12-07T02:48:49;14.60;;;8.80;;
14125;SDS011;7141;49.484;11.242;2022-12-07T02:51:17;12.43;;;8.77;;
14125;SDS011;7141;49.484;11.242;2022-12-07T02:53:43;12.50;;;9.00;;
14125;SDS011;7141;49.484;11.242;2022-12-07T02:59:02;13.20;;;8.83;;
14125;SDS011;7141;49.484;11.242;2022-12-07T03:04:17;12.73;;;9.20;;
14125;SDS011;7141;49.484;11.242;2022-12-07T03:06:49;12.90;;;8.23;;
14125;SDS011;7141;49.484;11.242;2022-12-07T03:09:21;15.87;;;10.00;;
14125;SDS011;7141;49.484;11.242;2022-12-07T03:12:01;14.20;;;9.60;;
14125;SDS011;7141;49.484;11.242;2022-12-07T03:14:33;12.57;;;8.87;;
14125;SDS011;7141;49.484;11.242;2022-12-07T03:17:20;14.97;;;9.60;;
14125;SDS011;7141;49.484;11.242;2022-12-07T03:19:49;13.80;;;9.87;;
14125;SDS011;7141;49.484;11.242;2022-12-07T03:22:17;13.17;;;9.00;;
14125;SDS011;7141;49.484;11.242;2022-12-07T03:24:54;14.33;;;9.80;;
14125;SDS011;7141;49.484;11.242;2022-12-07T03:27:28;15.57;;;9.33;;
14125;SDS011;7141;49.484;11.242;2022-12-07T03:29:59;15.60;;;10.10;;
14125;SDS011;7141;49.484;11.242;2022-12-07T03:32:28;17.80;;;10.40;;
14125;SDS011;7141;49.484;11.242;2022-12-07T03:35:07;16.77;;;10.30;;
14125;SDS011;7141;49.484;11.242;2022-12-07T03:42:36;16.17;;;10.30;;
14125;SDS011;7141;49.484;11.242;2022-12-07T03:45:02;14.90;;;10.57;;
14125;SDS011;7141;49.484;11.242;2022-12-07T03:47:38;15.40;;;9.50;;
14125;SDS011;7141;49.484;11.242;2022-12-07T03:52:45;12.77;;;9.20;;
14125;SDS011;7141;49.484;11.242;2022-12-07T03:57:42;14.03;;;9.90;;
14125;SDS011;7141;49.484;11.242;2022-12-07T04:00:09;13.23;;;9.50;;
14125;SDS011;7141;49.484;11.242;2022-12-07T04:02:35;13.27;;;9.27;;
14125;SDS011;7141;49.484;11.242;2022-12-07T04:05:02;15.57;;;9.33;;
14125;SDS011;7141;49.484;11.242;2022-12-07T04:07:28;15.60;;;9.03;;
14125;SDS011;7141;49.484;11.242;2022-12-07T04:09:54;15.77;;;10.43;;
14125;SDS011;7141;49.484;11.242;2022-12-07T04:12:20;17.40;;;10.63;;
14125;SDS011;7141;49.484;11.242;2022-12-07T04:14:46;13.17;;;9.17;;
14125;SDS011;7141;49.484;11.242;2022-12-07T04:17:12;14.57;;;9.43;;
14125;SDS011;7141;49.484;11.242;2022-12-07T04:19:38;16.80;;;10.27;;
14125;SDS011;7141;49.484;11.242;2022-12-07T04:22:04;16.80;;;9.90;;
14125;SDS011;7141;49.484;11.242;2022-12-07T04:24:30;14.83;;;9.33;;
14125;SDS011;7141;49.484;11.242;2022-12-07T04:26:57;16.50;;;10.00;;
14125;SDS011;7141;49.484;11.242;2022-12-07T04:29:23;15.93;;;10.63;;
14125;SDS011;7141;49.484;11.242;2022-12-07T04:31:49;18.63;;;9.80;;
14125;SDS011;7141;49.484;11.242;2022-12-07T04:34:15;16.73;;;11.00;;
14125;SDS011;7141;49.484;11.242;2022-12-07T04:36:41;19.30;;;12.20;;
14125;SDS011;7141;49.484;11.242;2022-12-07T04:39:09;18.63;;;11.60;;
14125;SDS011;7141;49.484;11.242;2022-12-07T04:41:39;18.07;;;10.53;;
14125;SDS011;7141;49.484;11.242;2022-12-07T04:44:05;17.07;;;11.00;;
14125;SDS011;7141;49.484;11.242;2022-12-07T04:46:32;17.70;;;10.40;;
14125;SDS011;7141;49.484;11.242;2022-12-07T04:48:58;17.40;;;10.23;;
14125;SDS011;7141;49.484;11.242;2022-12-07T04:51:25;16.70;;;11.13;;
14125;SDS011;7141;49.484;11.242;2022-12-07T04:53:52;18.70;;;11.10;;
14125;SDS011;7141;49.484;11.242;2022-12-07T04:56:18;18.67;;;11.33;;
14125;SDS011;7141;49.484;11.242;2022-12-07T04:58:45;17.80;;;11.27;;
14125;SDS011;7141;49.484;11.242;2022-12-07T05:01:12;20.77;;;12.63;;
14125;SDS011;7141;49.484;11.242;2022-12-07T05:03:38;16.03;;;11.10;;
14125;SDS011;7141;49.484;11.242;2022-12-07T05:06:04;20.93;;;11.73;;
14125;SDS011;7141;49.484;11.242;2022-12-07T05:08:30;17.47;;;11.20;;
14125;SDS011;7141;49.484;11.242;2022-12-07T05:10:56;19.43;;;11.07;;
14125;SDS011;7141;49.484;11.242;2022-12-07T05:13:22;20.10;;;11.57;;
14125;SDS011;7141;49.484;11.242;2022-12-07T05:15:48;17.97;;;10.77;;
14125;SDS011;7141;49.484;11.242;2022-12-07T05:18:14;17.63;;;11.57;;
14125;SDS011;7141;49.484;11.242;2022-12-07T05:20:41;19.27;;;11.57;;
14125;SDS011;7141;49.484;11.242;2022-12-07T05:23:07;21.83;;;12.00;;
14125;SDS011;7141;49.484;11.242;2022-12-07T05:25:33;20.97;;;11.80;;
14125;SDS011;7141;49.484;11.242;2022-12-07T05:27:59;40.80;;;20.00;;
14125;SDS011;7141;49.484;11.242;2022-12-07T05:30:25;87.70;;;41.27;;
14125;SDS011;7141;49.484;11.242;2022-12-07T05:32:52;58.63;;;31.17;;
14125;SDS011;7141;49.484;11.242;2022-12-07T05:35:18;37.23;;;21.63;;
14125;SDS011;7141;49.484;11.242;2022-12-07T05:37:44;26.40;;;14.80;;
14125;SDS011;7141;49.484;11.242;2022-12-07T05:40:11;20.43;;;11.97;;
14125;SDS011;7141;49.484;11.242;2022-12-07T05:42:37;19.47;;;12.20;;
14125;SDS011;7141;49.484;11.242;2022-12-07T05:45:03;19.90;;;12.23;;
14125;SDS011;7141;49.484;11.242;2022-12-07T05:47:30;21.10;;;13.10;;
14125;SDS011;7141;49.484;11.242;2022-12-07T05:49:55;23.30;;;13.47;;
14125;SDS011;7141;49.484;11.242;2022-12-07T05:52:22;21.07;;;12.63;;
14125;SDS011;7141;49.484;11.242;2022-12-07T05:54:48;23.40;;;13.47;;
14125;SDS011;7141;49.484;11.242;2022-12-07T05:57:13;20.37;;;12.50;;
14125;SDS011;7141;49.484;11.242;2022-12-07T05:59:39;25.33;;;14.47;;
14125;SDS011;7141;49.484;11.242;2022-12-07T06:02:06;21.93;;;13.23;;
14125;SDS011;7141;49.484;11.242;2022-12-07T06:04:34;19.23;;;12.63;;
14125;SDS011;7141;49.484;11.242;2022-12-07T06:07:00;21.23;;;12.83;;
14125;SDS011;7141;49.484;11.242;2022-12-07T06:09:27;22.63;;;13.63;;
14125;SDS011;7141;49.484;11.242;2022-12-07T06:11:54;23.20;;;13.40;;
14125;SDS011;7141;49.484;11.242;2022-12-07T06:14:38;20.03;;;12.80;;
14125;SDS011;7141;49.484;11.242;2022-12-07T06:17:05;18.57;;;11.93;;
14125;SDS011;7141;49.484;11.242;2022-12-07T06:19:31;21.27;;;12.77;;
14125;SDS011;7141;49.484;11.242;2022-12-07T06:21:58;22.07;;;12.23;;
14125;SDS011;7141;49.484;11.242;2022-12-07T06:24:24;20.50;;;12.33;;
14125;SDS011;7141;49.484;11.242;2022-12-07T06:26:50;20.13;;;12.53;;
14125;SDS011;7141;49.484;11.242;2022-12-07T06:29:17;19.63;;;12.10;;
14125;SDS011;7141;49.484;11.242;2022-12-07T06:31:43;22.33;;;12.77;;
14125;SDS011;7141;49.484;11.242;2022-12-07T06:34:11;18.40;;;11.73;;
14125;SDS011;7141;49.484;11.242;2022-12-07T06:36:38;23.43;;;13.53;;
14125;SDS011;7141;49.484;11.242;2022-12-07T06:39:04;19.70;;;12.83;;
14125;SDS011;7141;49.484;11.242;2022-12-07T06:41:30;19.97;;;12.67;;
14125;SDS011;7141;49.484;11.242;2022-12-07T06:43:56;21.47;;;13.83;;
14125;SDS011;7141;49.484;11.242;2022-12-07T06:46:23;20.17;;;12.70;;
14125;SDS011;7141;49.484;11.242;2022-12-07T06:48:49;22.60;;;13.57;;
14125;SDS011;7141;49.484;11.242;2022-12-07T06:51:15;20.77;;;12.43;;
14125;SDS011;7141;49.484;11.242;2022-12-07T06:53:41;20.20;;;12.90;;
14125;SDS011;7141;49.484;11.242;2022-12-07T06:56:07;21.50;;;13.67;;
14125;SDS011;7141;49.484;11.242;2022-12-07T06:58:33;25.50;;;14.80;;
14125;SDS011;7141;49.484;11.242;2022-12-07T07:00:59;23.00;;;13.73;;
14125;SDS011;7141;49.484;11.242;2022-12-07T07:03:25;22.83;;;14.80;;
14125;SDS011;7141;49.484;11.242;2022-12-07T07:05:51;26.57;;;15.03;;
14125;SDS011;7141;49.484;11.242;2022-12-07T07:08:17;26.87;;;16.30;;
14125;SDS011;7141;49.484;11.242;2022-12-07T07:10:43;23.27;;;14.70;;
14125;SDS011;7141;49.484;11.242;2022-12-07T07:13:09;31.70;;;17.27;;
14125;SDS011;7141;49.484;11.242;2022-12-07T07:15:37;29.23;;;16.57;;
14125;SDS011;7141;49.484;11.242;2022-12-07T07:18:03;29.53;;;16.57;;
14125;SDS011;7141;49.484;11.242;2022-12-07T07:20:29;32.10;;;18.27;;
14125;SDS011;7141;49.484;11.242;2022-12-07T07:22:55;26.40;;;16.13;;
14125;SDS011;7141;49.484;11.242;2022-12-07T07:25:21;27.03;;;17.43;;
14125;SDS011;7141;49.484;11.242;2022-12-07T07:27:47;28.33;;;16.70;;
14125;SDS011;7141;49.484;11.242;2022-12-07T07:30:13;28.07;;;15.60;;
14125;SDS011;7141;49.484;11.242;2022-12-07T07:32:39;29.37;;;17.30;;
14125;SDS011;7141;49.484;11.242;2022-12-07T07:35:05;25.97;;;15.07;;
14125;SDS011;7141;49.484;11.242;2022-12-07T07:37:31;26.90;;;14.97;;
14125;SDS011;7141;49.484;11.242;2022-12-07T07:39:57;23.27;;;12.77;;
14125;SDS011;7141;49.484;11.242;2022-12-07T07:42:23;24.27;;;13.50;;
14125;SDS011;7141;49.484;11.242;2022-12-07T07:44:49;24.63;;;14.97;;
14125;SDS011;7141;49.484;11.242;2022-12-07T07:47:15;23.70;;;14.20;;
14125;SDS011;7141;49.484;11.242;2022-12-07T07:49:41;27.07;;;15.27;;
14125;SDS011;7141;49.484;11.242;2022-12-07T07:52:07;23.40;;;13.67;;
14125;SDS011;7141;49.484;11.242;2022-12-07T07:54:33;23.63;;;13.77;;
14125;SDS011;7141;49.484;11.242;2022-12-07T07:56:59;23.23;;;14.33;;
14125;SDS011;7141;49.484;11.242;2022-12-07T07:59:25;22.50;;;13.60;;
14125;SDS011;7141;49.484;11.242;2022-12-07T08:01:51;20.47;;;13.03;;
14125;SDS011;7141;49.484;11.242;2022-12-07T08:04:17;29.07;;;14.73;;
14125;SDS011;7141;49.484;11.242;2022-12-07T08:06:43;20.87;;;13.77;;
14125;SDS011;7141;49.484;11.242;2022-12-07T08:09:09;23.47;;;13.30;;
14125;SDS011;7141;49.484;11.242;2022-12-07T08:11:35;25.40;;;13.13;;
14125;SDS011;7141;49.484;11.242;2022-12-07T08:14:02;23.53;;;13.73;;
14125;SDS011;7141;49.484;11.242;2022-12-07T08:16:28;21.60;;;13.53;;
14125;SDS011;7141;49.484;11.242;2022-12-07T08:18:54;21.13;;;13.57;;
14125;SDS011;7141;49.484;11.242;2022-12-07T08:21:20;27.20;;;12.83;;
14125;SDS011;7141;49.484;11.242;2022-12-07T08:23:46;24.47;;;14.33;;
14125;SDS011;7141;49.484;11.242;2022-12-07T08:26:13;25.50;;;14.07;;
14125;SDS011;7141;49.484;11.242;2022-12-07T08:28:39;24.90;;;14.93;;
14125;SDS011;7141;49.484;11.242;2022-12-07T08:31:06;21.80;;;12.90;;
14125;SDS011;7141;49.484;11.242;2022-12-07T08:33:33;22.53;;;13.53;;
14125;SDS011;7141;49.484;11.242;2022-12-07T08:36:17;21.33;;;13.30;;
14125;SDS011;7141;49.484;11.242;2022-12-07T08:38:43;25.13;;;13.07;;
14125;SDS011;7141;49.484;11.242;2022-12-07T08:41:09;19.93;;;12.47;;
14125;SDS011;7141;49.484;11.242;2022-12-07T08:43:35;26.47;;;13.63;;
14125;SDS011;7141;49.484;11.242;2022-12-07T08:48:31;21.33;;;13.50;;
14125;SDS011;7141;49.484;11.242;2022-12-07T08:50:57;23.03;;;13.33;;
14125;SDS011;7141;49.484;11.242;2022-12-07T08:53:23;27.80;;;13.57;;
14125;SDS011;7141;49.484;11.242;2022-12-07T08:55:50;23.77;;;13.90;;
14125;SDS011;7141;49.484;11.242;2022-12-07T08:58:16;24.97;;;13.67;;
14125;SDS011;7141;49.484;11.242;2022-12-07T09:00:42;21.10;;;12.67;;
14125;SDS011;7141;49.484;11.242;2022-12-07T09:03:08;21.93;;;12.93;;
14125;SDS011;7141;49.484;11.242;2022-12-07T09:05:34;22.73;;;12.90;;
14125;SDS011;7141;49.484;11.242;2022-12-07T09:08:00;26.17;;;13.43;;
14125;SDS011;7141;49.484;11.242;2022-12-07T09:10:27;21.93;;;12.87;;
14125;SDS011;7141;49.484;11.242;2022-12-07T09:12:53;24.43;;;12.97;;
14125;SDS011;7141;49.484;11.242;2022-12-07T09:15:19;19.97;;;12.80;;
14125;SDS011;7141;49.484;11.242;2022-12-07T09:17:45;21.37;;;13.30;;
14125;SDS011;7141;49.484;11.242;2022-12-07T09:20:11;24.67;;;13.53;;
14125;SDS011;7141;49.484;11.242;2022-12-07T09:22:37;19.40;;;11.70;;
14125;SDS011;7141;49.484;11.242;2022-12-07T09:25:03;20.87;;;12.37;;
14125;SDS011;7141;49.484;11.242;2022-12-07T09:27:30;22.67;;;13.27;;
14125;SDS011;7141;49.484;11.242;2022-12-07T09:29:56;21.67;;;12.67;;
14125;SDS011;7141;49.484;11.242;2022-12-07T09:32:22;21.90;;;12.40;;
14125;SDS011;7141;49.484;11.242;2022-12-07T09:34:48;21.90;;;12.50;;
14125;SDS011;7141;49.484;11.242;2022-12-07T09:37:14;19.13;;;11.40;;
14125;SDS011;7141;49.484;11.242;2022-12-07T09:39:40;18.80;;;10.87;;
14125;SDS011;7141;49.484;11.242;2022-12-07T09:42:06;19.83;;;11.50;;
14125;SDS011;7141;49.484;11.242;2022-12-07T09:44:34;20.03;;;11.40;;
14125;SDS011;7141;49.484;11.242;2022-12-07T09:47:00;16.30;;;10.93;;
14125;SDS011;7141;49.484;11.242;2022-12-07T09:49:28;15.40;;;9.53;;
14125;SDS011;7141;49.484;11.242;2022-12-07T09:52:02;16.43;;;10.70;;
14125;SDS011;7141;49.484;11.242;2022-12-07T09:54:28;18.23;;;10.87;;
14125;SDS011;7141;49.484;11.242;2022-12-07T09:56:55;13.67;;;9.87;;
14125;SDS011;7141;49.484;11.242;2022-12-07T09:59:21;18.83;;;9.30;;
14125;SDS011;7141;49.484;11.242;2022-12-07T10:01:48;14.90;;;9.23;;
14125;SDS011;7141;49.484;11.242;2022-12-07T10:06:44;16.73;;;9.77;;
14125;SDS011;7141;49.484;11.242;2022-12-07T10:09:14;15.57;;;9.37;;
14125;SDS011;7141;49.484;11.242;2022-12-07T10:14:26;15.40;;;9.60;;
14125;SDS011;7141;49.484;11.242;2022-12-07T10:16:52;15.00;;;9.73;;
14125;SDS011;7141;49.484;11.242;2022-12-07T10:24:29;15.03;;;9.03;;
14125;SDS011;7141;49.484;11.242;2022-12-07T10:26:55;17.87;;;9.73;;
14125;SDS011;7141;49.484;11.242;2022-12-07T10:29:22;15.57;;;9.57;;
14125;SDS011;7141;49.484;11.242;2022-12-07T10:31:54;16.47;;;9.47;;
14125;SDS011;7141;49.484;11.242;2022-12-07T10:34:23;16.27;;;9.50;;
14125;SDS011;7141;49.484;11.242;2022-12-07T10:36:49;14.90;;;8.57;;
14125;SDS011;7141;49.484;11.242;2022-12-07T10:39:19;17.13;;;10.53;;
14125;SDS011;7141;49.484;11.242;2022-12-07T10:41:52;14.97;;;9.47;;
14125;SDS011;7141;49.484;11.242;2022-12-07T10:44:23;21.10;;;10.30;;
14125;SDS011;7141;49.484;11.242;2022-12-07T10:52:35;16.57;;;9.70;;
14125;SDS011;7141;49.484;11.242;2022-12-07T10:57:50;17.40;;;9.93;;
14125;SDS011;7141;49.484;11.242;2022-12-07T11:00:21;15.97;;;10.07;;
14125;SDS011;7141;49.484;11.242;2022-12-07T11:13:18;14.43;;;9.57;;
14125;SDS011;7141;49.484;11.242;2022-12-07T11:18:19;14.93;;;9.23;;
14125;SDS011;7141;49.484;11.242;2022-12-07T11:26:21;15.57;;;9.20;;
14125;SDS011;7141;49.484;11.242;2022-12-07T11:34:25;13.97;;;9.40;;
14125;SDS011;7141;49.484;11.242;2022-12-07T11:36:52;15.23;;;9.23;;
14125;SDS011;7141;49.484;11.242;2022-12-07T11:42:18;13.97;;;8.90;;
14125;SDS011;7141;49.484;11.242;2022-12-07T11:44:50;13.77;;;8.93;;
14125;SDS011;7141;49.484;11.242;2022-12-07T11:50:05;16.77;;;9.60;;
14125;SDS011;7141;49.484;11.242;2022-12-07T11:52:49;15.83;;;9.93;;
14125;SDS011;7141;49.484;11.242;2022-12-07T11:56:03;14.20;;;9.10;;
14125;SDS011;7141;49.484;11.242;2022-12-07T11:58:04;14.83;;;9.70;;
14125;SDS011;7141;49.484;11.242;2022-12-07T12:00:36;12.83;;;9.07;;
14125;SDS011;7141;49.484;11.242;2022-12-07T12:03:09;14.90;;;9.60;;
14125;SDS011;7141;49.484;11.242;2022-12-07T12:05:36;14.27;;;9.63;;
14125;SDS011;7141;49.484;11.242;2022-12-07T12:10:43;15.30;;;9.87;;
14125;SDS011;7141;49.484;11.242;2022-12-07T12:16:01;14.43;;;9.87;;
14125;SDS011;7141;49.484;11.242;2022-12-07T12:18:45;16.53;;;9.53;;
14125;SDS011;7141;49.484;11.242;2022-12-07T12:21:15;14.07;;;8.93;;
14125;SDS011;7141;49.484;11.242;2022-12-07T12:26:18;14.80;;;9.90;;
14125;SDS011;7141;49.484;11.242;2022-12-07T12:28:50;15.20;;;9.47;;
14125;SDS011;7141;49.484;11.242;2022-12-07T12:33:54;15.23;;;9.10;;
14125;SDS011;7141;49.484;11.242;2022-12-07T12:39:16;14.20;;;9.27;;
14125;SDS011;7141;49.484;11.242;2022-12-07T12:46:46;14.00;;;9.43;;
14125;SDS011;7141;49.484;11.242;2022-12-07T12:51:43;15.70;;;8.90;;
14125;SDS011;7141;49.484;11.242;2022-12-07T12:56:43;18.17;;;9.60;;
14125;SDS011;7141;49.484;11.242;2022-12-07T13:02:23;13.93;;;9.20;;
14125;SDS011;7141;49.484;11.242;2022-12-07T13:04:55;14.50;;;9.70;;
14125;SDS011;7141;49.484;11.242;2022-12-07T13:10:20;15.13;;;9.03;;
14125;SDS011;7141;49.484;11.242;2022-12-07T13:17:58;15.47;;;9.73;;
14125;SDS011;7141;49.484;11.242;2022-12-07T13:20:42;14.03;;;9.27;;
14125;SDS011;7141;49.484;11.242;2022-12-07T13:23:08;14.40;;;9.90;;
14125;SDS011;7141;49.484;11.242;2022-12-07T13:25:38;12.13;;;8.53;;
14125;SDS011;7141;49.484;11.242;2022-12-07T13:28:14;14.57;;;9.43;;
14125;SDS011;7141;49.484;11.242;2022-12-07T13:30:43;15.33;;;9.57;;
14125;SDS011;7141;49.484;11.242;2022-12-07T13:33:10;15.17;;;9.70;;
14125;SDS011;7141;49.484;11.242;2022-12-07T13:35:37;14.13;;;8.77;;
14125;SDS011;7141;49.484;11.242;2022-12-07T13:43:28;15.13;;;9.50;;
14125;SDS011;7141;49.484;11.242;2022-12-07T13:45:57;15.53;;;9.13;;
14125;SDS011;7141;49.484;11.242;2022-12-07T13:48:31;14.53;;;9.93;;
14125;SDS011;7141;49.484;11.242;2022-12-07T13:50:58;18.17;;;10.30;;
14125;SDS011;7141;49.484;11.242;2022-12-07T13:53:24;16.17;;;9.80;;
14125;SDS011;7141;49.484;11.242;2022-12-07T13:55:55;16.43;;;10.70;;
14125;SDS011;7141;49.484;11.242;2022-12-07T13:58:21;14.93;;;10.13;;
14125;SDS011;7141;49.484;11.242;2022-12-07T14:00:48;15.93;;;10.27;;
14125;SDS011;7141;49.484;11.242;2022-12-07T14:05:40;17.17;;;11.10;;
14125;SDS011;7141;49.484;11.242;2022-12-07T14:10:37;15.17;;;10.47;;
14125;SDS011;7141;49.484;11.242;2022-12-07T14:15:49;15.80;;;10.93;;
14125;SDS011;7141;49.484;11.242;2022-12-07T14:18:29;16.63;;;10.97;;
14125;SDS011;7141;49.484;11.242;2022-12-07T14:23:37;19.60;;;11.10;;
14125;SDS011;7141;49.484;11.242;2022-12-07T14:26:07;18.13;;;11.17;;
14125;SDS011;7141;49.484;11.242;2022-12-07T14:28:35;17.53;;;10.37;;
14125;SDS011;7141;49.484;11.242;2022-12-07T14:31:01;16.23;;;10.63;;
14125;SDS011;7141;49.484;11.242;2022-12-07T14:33:28;19.70;;;11.30;;
14125;SDS011;7141;49.484;11.242;2022-12-07T14:35:54;18.30;;;11.00;;
14125;SDS011;7141;49.484;11.242;2022-12-07T14:38:22;16.50;;;11.13;;
14125;SDS011;7141;49.484;11.242;2022-12-07T14:40:49;14.70;;;10.23;;
14125;SDS011;7141;49.484;11.242;2022-12-07T14:43:16;15.40;;;10.70;;
14125;SDS011;7141;49.484;11.242;2022-12-07T14:45:42;16.17;;;11.00;;
14125;SDS011;7141;49.484;11.242;2022-12-07T14:48:12;16.83;;;11.00;;
14125;SDS011;7141;49.484;11.242;2022-12-07T14:50:40;17.93;;;10.80;;
14125;SDS011;7141;49.484;11.242;2022-12-07T14:53:14;16.87;;;10.67;;
14125;SDS011;7141;49.484;11.242;2022-12-07T14:55:40;17.87;;;11.00;;
14125;SDS011;7141;49.484;11.242;2022-12-07T14:58:11;21.27;;;14.90;;
14125;SDS011;7141;49.484;11.242;2022-12-07T15:00:38;20.83;;;11.87;;
14125;SDS011;7141;49.484;11.242;2022-12-07T15:03:04;16.80;;;9.50;;
14125;SDS011;7141;49.484;11.242;2022-12-07T15:05:30;16.27;;;9.50;;
14125;SDS011;7141;49.484;11.242;2022-12-07T15:07:56;11.63;;;7.57;;
14125;SDS011;7141;49.484;11.242;2022-12-07T15:10:26;13.70;;;7.37;;
14125;SDS011;7141;49.484;11.242;2022-12-07T15:12:54;13.33;;;6.87;;
14125;SDS011;7141;49.484;11.242;2022-12-07T15:15:40;7.70;;;5.13;;
14125;SDS011;7141;49.484;11.242;2022-12-07T15:18:06;6.63;;;4.80;;
14125;SDS011;7141;49.484;11.242;2022-12-07T15:20:33;9.17;;;4.73;;
14125;SDS011;7141;49.484;11.242;2022-12-07T15:22:58;8.57;;;4.93;;
14125;SDS011;7141;49.484;11.242;2022-12-07T15:25:24;7.40;;;5.03;;
14125;SDS011;7141;49.484;11.242;2022-12-07T15:27:50;6.30;;;4.83;;
14125;SDS011;7141;49.484;11.242;2022-12-07T15:30:16;5.53;;;4.27;;
14125;SDS011;7141;49.484;11.242;2022-12-07T15:32:42;9.47;;;5.63;;
14125;SDS011;7141;49.484;11.242;2022-12-07T15:35:08;8.10;;;5.40;;
14125;SDS011;7141;49.484;11.242;2022-12-07T15:37:34;9.37;;;5.47;;
14125;SDS011;7141;49.484;11.242;2022-12-07T15:40:00;7.73;;;5.43;;
14125;SDS011;7141;49.484;11.242;2022-12-07T15:42:26;10.93;;;6.43;;
14125;SDS011;7141;49.484;11.242;2022-12-07T15:44:52;9.53;;;5.27;;
14125;SDS011;7141;49.484;11.242;2022-12-07T15:47:31;8.23;;;5.50;;
14125;SDS011;7141;49.484;11.242;2022-12-07T15:49:57;9.63;;;5.90;;
14125;SDS011;7141;49.484;11.242;2022-12-07T15:52:23;12.67;;;6.37;;
14125;SDS011;7141;49.484;11.242;2022-12-07T15:54:49;10.33;;;6.37;;
14125;SDS011;7141;49.484;11.242;2022-12-07T15:57:15;9.07;;;6.57;;
14125;SDS011;7141;49.484;11.242;2022-12-07T15:59:41;11.50;;;6.63;;
14125;SDS011;7141;49.484;11.242;2022-12-07T16:02:09;11.70;;;7.33;;
14125;SDS011;7141;49.484;11.242;2022-12-07T16:04:35;10.63;;;6.60;;
14125;SDS011;7141;49.484;11.242;2022-12-07T16:07:02;9.67;;;6.80;;
14125;SDS011;7141;49.484;11.242;2022-12-07T16:09:28;13.63;;;6.77;;
14125;SDS011;7141;49.484;11.242;2022-12-07T16:11:54;9.93;;;7.27;;
14125;SDS011;7141;49.484;11.242;2022-12-07T16:14:20;12.60;;;7.53;;
14125;SDS011;7141;49.484;11.242;2022-12-07T16:16:47;13.00;;;7.13;;
14125;SDS011;7141;49.484;11.242;2022-12-07T16:19:13;11.20;;;7.40;;
14125;SDS011;7141;49.484;11.242;2022-12-07T16:21:39;15.90;;;9.00;;
14125;SDS011;7141;49.484;11.242;2022-12-07T16:24:05;15.33;;;10.30;;
14125;SDS011;7141;49.484;11.242;2022-12-07T16:26:31;16.20;;;10.67;;
14125;SDS011;7141;49.484;11.242;2022-12-07T16:28:57;17.13;;;10.17;;
14125;SDS011;7141;49.484;11.242;2022-12-07T16:31:24;18.33;;;10.77;;
14125;SDS011;7141;49.484;11.242;2022-12-07T16:33:54;39.80;;;19.10;;
14125;SDS011;7141;49.484;11.242;2022-12-07T16:36:21;21.60;;;11.60;;
14125;SDS011;7141;49.484;11.242;2022-12-07T16:38:49;19.70;;;13.10;;
14125;SDS011;7141;49.484;11.242;2022-12-07T16:41:15;17.83;;;12.50;;
14125;SDS011;7141;49.484;11.242;2022-12-07T16:43:41;19.40;;;12.00;;